Time;durP1;ratioP1;P1;durP2;ratioP2;P2;SDS_P1;SDS_P2;PMS_P1;PMS_P2;Temp;Humidity;BMP_temperature;BMP_pressure;BME280_temperature;BME280_humidity;BME280_pressure;Samples;Min_cycle;Max_cycle;Signal;HPM_P1;HPM_P2
2021/12/10 00:00:19;;;;;;;2.40;1.10;;;;;;;2.80;100.00;99803.41;6223619;28;20054;-74
2021/12/10 00:03:23;;;;;;;2.50;1.67;;;;;;;2.82;100.00;99805.09;6222144;28;20050;-74
2021/12/10 00:06:29;;;;;;;2.88;1.55;;;;;;;2.78;100.00;99794.00;6223851;28;20045;-74
2021/12/10 00:09:37;;;;;;;4.30;1.38;;;;;;;2.80;100.00;99790.44;6223299;28;20061;-74
2021/12/10 00:12:44;;;;;;;2.88;1.42;;;;;;;2.80;100.00;99774.88;6223458;28;20508;-74
2021/12/10 00:15:45;;;;;;;5.85;1.33;;;;;;;2.80;100.00;99774.88;6223541;28;20398;-74
2021/12/10 00:18:52;;;;;;;5.78;2.22;;;;;;;2.89;100.00;99773.69;6223488;28;20069;-74
2021/12/10 00:21:56;;;;;;;2.15;1.00;;;;;;;2.83;100.00;99775.69;6223022;28;20525;-74
2021/12/10 00:24:59;;;;;;;3.78;1.60;;;;;;;2.76;100.00;99765.50;6223224;28;20064;-74
2021/12/10 00:28:12;;;;;;;4.05;1.55;;;;;;;2.67;100.00;99758.06;6223057;28;20056;-74
2021/12/10 00:31:21;;;;;;;2.10;1.08;;;;;;;2.62;100.00;99764.34;6222245;28;20054;-74
2021/12/10 00:34:26;;;;;;;2.30;1.10;;;;;;;2.56;100.00;99764.56;6222001;28;20046;-74
2021/12/10 00:37:28;;;;;;;6.55;1.25;;;;;;;2.50;100.00;99769.06;6214902;28;20046;-74
2021/12/10 00:40:31;;;;;;;6.38;1.58;;;;;;;2.44;100.00;99756.31;6221302;28;20046;-74
2021/12/10 00:43:33;;;;;;;2.72;1.80;;;;;;;2.37;100.00;99752.25;6216371;28;20528;-74
2021/12/10 00:46:35;;;;;;;1.70;0.95;;;;;;;2.37;100.00;99746.25;6222711;28;20058;-74
2021/12/10 00:49:36;;;;;;;2.55;1.52;;;;;;;2.38;100.00;99740.16;6222891;28;20042;-73
2021/12/10 00:52:38;;;;;;;1.63;1.40;;;;;;;2.36;100.00;99741.94;6221912;28;20053;-74
2021/12/10 00:55:40;;;;;;;1.88;1.67;;;;;;;2.36;100.00;99742.78;6214515;28;20053;-74
2021/12/10 00:58:42;;;;;;;1.65;1.10;;;;;;;2.33;100.00;99742.91;6222563;28;20045;-73
2021/12/10 01:01:43;;;;;;;3.30;1.70;;;;;;;2.34;100.00;99742.00;6221446;28;20494;-74
2021/12/10 01:04:48;;;;;;;3.33;1.67;;;;;;;2.30;100.00;99737.81;6221883;28;20424;-73
2021/12/10 01:07:50;;;;;;;1.55;1.42;;;;;;;2.31;100.00;99739.50;6222669;28;20049;-74
2021/12/10 01:10:57;;;;;;;1.85;1.45;;;;;;;2.29;100.00;99731.78;6222147;28;20651;-74
2021/12/10 01:14:11;;;;;;;2.63;1.65;;;;;;;2.34;100.00;99726.44;6222241;28;20062;-74
2021/12/10 01:23:57;;;;;;;3.03;1.63;;;;;;;2.26;100.00;99711.16;6197862;28;19922;-74
2021/12/10 01:27:08;;;;;;;5.35;1.90;;;;;;;2.25;100.00;99712.06;6198073;28;20050;-74
2021/12/10 01:30:15;;;;;;;3.67;1.88;;;;;;;2.26;100.00;99707.72;6217325;28;20155;-74
2021/12/10 01:33:19;;;;;;;1.92;1.35;;;;;;;2.24;100.00;99696.56;6222349;28;20053;-74
2021/12/10 01:36:22;;;;;;;2.97;1.48;;;;;;;2.25;100.00;99695.66;6222146;28;20046;-73
2021/12/10 01:39:27;;;;;;;7.53;1.88;;;;;;;2.30;100.00;99693.75;6222227;28;20140;-74
2021/12/10 01:42:40;;;;;;;2.92;2.08;;;;;;;2.30;100.00;99683.38;6221850;28;20053;-73
2021/12/10 01:45:47;;;;;;;5.78;1.90;;;;;;;2.31;100.00;99682.47;6222124;28;20050;-74
2021/12/10 01:48:51;;;;;;;6.53;2.13;;;;;;;2.32;100.00;99683.31;6222009;28;20042;-74
2021/12/10 01:51:52;;;;;;;1.85;1.55;;;;;;;2.32;100.00;99681.59;6221632;28;20053;-74
2021/12/10 01:54:57;;;;;;;3.72;2.25;;;;;;;2.29;100.00;99682.53;6221797;28;20056;-74
2021/12/10 01:58:00;;;;;;;5.15;1.75;;;;;;;2.35;100.00;99670.25;6221984;28;20050;-74
2021/12/10 02:01:06;;;;;;;2.17;1.67;;;;;;;2.33;100.00;99670.31;6198959;28;20494;-74
2021/12/10 02:04:10;;;;;;;4.75;2.03;;;;;;;2.34;100.00;99668.56;6199573;28;20047;-74
2021/12/10 02:07:15;;;;;;;4.00;2.25;;;;;;;2.37;100.00;99671.06;6202306;28;20054;-74
2021/12/10 02:10:21;;;;;;;2.05;1.58;;;;;;;2.43;100.00;99668.22;6201656;28;20050;-74
2021/12/10 02:13:24;;;;;;;3.00;1.70;;;;;;;2.39;100.00;99666.66;6202194;28;20054;-74
2021/12/10 02:16:26;;;;;;;4.60;2.22;;;;;;;2.39;100.00;99657.13;6201706;28;20055;-74
2021/12/10 02:19:29;;;;;;;4.43;2.60;;;;;;;2.40;100.00;99658.81;6202024;28;20639;-73
2021/12/10 02:22:31;;;;;;;5.75;2.38;;;;;;;2.42;100.00;99654.41;6201523;28;20417;-74
2021/12/10 02:25:37;;;;;;;5.82;2.33;;;;;;;2.44;100.00;99649.16;6201869;28;20494;-74
2021/12/10 02:28:39;;;;;;;5.55;2.15;;;;;;;2.42;100.00;99646.63;6201887;28;20055;-74
2021/12/10 02:31:41;;;;;;;5.03;2.20;;;;;;;2.46;100.00;99632.66;6221762;28;20046;-74
2021/12/10 02:34:44;;;;;;;3.70;2.58;;;;;;;2.44;100.00;99636.19;6213684;28;20413;-74
2021/12/10 02:37:48;;;;;;;4.30;2.30;;;;;;;2.45;100.00;99630.97;6217529;28;20057;-74
2021/12/10 02:40:52;;;;;;;3.38;1.50;;;;;;;2.46;100.00;99627.47;6225478;28;20221;-74
2021/12/10 02:43:54;;;;;;;8.60;2.13;;;;;;;2.44;100.00;99613.72;6221037;28;20049;-74
2021/12/10 02:46:56;;;;;;;4.25;2.10;;;;;;;2.46;100.00;99609.31;6222135;28;20050;-74
2021/12/10 02:49:58;;;;;;;4.20;1.98;;;;;;;2.45;100.00;99610.25;6225275;28;20046;-74
2021/12/10 02:53:01;;;;;;;4.90;1.98;;;;;;;2.45;100.00;99611.97;6225385;28;20042;-74
2021/12/10 02:56:03;;;;;;;5.88;2.15;;;;;;;2.45;100.00;99604.19;6225077;28;20045;-74
2021/12/10 02:59:05;;;;;;;5.35;2.72;;;;;;;2.43;100.00;99601.66;6216334;28;20409;-73
2021/12/10 03:02:13;;;;;;;7.22;1.95;;;;;;;2.45;100.00;99604.19;6223673;28;20050;-73
2021/12/10 03:05:15;;;;;;;3.57;2.10;;;;;;;2.47;100.00;99605.81;6225160;28;20057;-74
2021/12/10 03:08:18;;;;;;;3.53;2.03;;;;;;;2.48;100.00;99596.28;6223992;28;20057;-74
2021/12/10 03:11:23;;;;;;;3.97;1.88;;;;;;;2.48;100.00;99594.53;6216445;28;20041;-73
2021/12/10 03:14:28;;;;;;;8.07;2.83;;;;;;;2.49;100.00;99593.63;6208220;28;20055;-73
2021/12/10 03:17:32;;;;;;;3.47;2.17;;;;;;;2.47;100.00;99586.84;6215320;28;20051;-74
2021/12/10 03:20:35;;;;;;;2.78;1.80;;;;;;;2.50;100.00;99602.28;6222463;28;20050;-74
2021/12/10 03:23:42;;;;;;;3.10;2.35;;;;;;;2.50;100.00;99590.16;6218722;28;20056;-74
2021/12/10 03:26:44;;;;;;;4.47;1.90;;;;;;;2.52;100.00;99590.09;6216255;28;20046;-74
2021/12/10 03:29:46;;;;;;;5.03;2.25;;;;;;;2.53;100.00;99587.41;6222524;28;20441;-74
2021/12/10 03:32:47;;;;;;;3.08;1.38;;;;;;;2.55;100.00;99577.00;6224270;28;20457;-74
2021/12/10 03:35:50;;;;;;;3.67;1.88;;;;;;;2.52;100.00;99577.97;6224204;28;20057;-74
2021/12/10 03:38:54;;;;;;;6.53;2.30;;;;;;;2.56;100.00;99568.31;6219920;28;20513;-74
2021/12/10 03:41:58;;;;;;;4.45;2.47;;;;;;;2.52;100.00;99559.81;6220383;28;20057;-74
2021/12/10 03:44:59;;;;;;;3.35;2.33;;;;;;;2.50;100.00;99548.66;6224158;28;20045;-74
2021/12/10 03:48:02;;;;;;;5.22;2.33;;;;;;;2.54;100.00;99549.38;6224045;28;20057;-74
2021/12/10 03:51:07;;;;;;;7.93;2.05;;;;;;;2.41;100.00;99548.19;6223823;28;20042;-74
2021/12/10 03:54:12;;;;;;;1.95;1.40;;;;;;;2.34;100.00;99550.16;6223688;28;20395;-73
2021/12/10 03:57:14;;;;;;;5.57;3.20;;;;;;;2.29;100.00;99547.75;6223852;28;20449;-74
2021/12/10 04:00:19;;;;;;;4.05;2.40;;;;;;;2.30;100.00;99540.81;6221768;28;20049;-74
2021/12/10 04:03:24;;;;;;;6.78;3.15;;;;;;;2.29;100.00;99544.31;6199524;28;20050;-74
2021/12/10 04:06:27;;;;;;;3.80;1.92;;;;;;;2.31;100.00;99542.50;6199219;28;20054;-73
2021/12/10 04:09:29;;;;;;;3.80;2.28;;;;;;;2.29;100.00;99544.31;6207670;28;20080;-74
2021/12/10 04:12:31;;;;;;;4.82;2.13;;;;;;;2.29;100.00;99539.97;6223430;28;20057;-73
2021/12/10 04:15:34;;;;;;;2.25;1.48;;;;;;;2.31;100.00;99536.47;6223575;28;20049;-74
2021/12/10 04:18:37;;;;;;;3.10;2.22;;;;;;;2.32;100.00;99535.56;6223511;28;20049;-74
2021/12/10 04:21:41;;;;;;;7.70;2.90;;;;;;;2.28;100.00;99529.66;6223028;28;20535;-74
2021/12/10 04:24:44;;;;;;;6.57;2.53;;;;;;;2.20;100.00;99532.56;6223227;28;20147;-73
2021/12/10 04:27:48;;;;;;;2.83;1.85;;;;;;;2.09;100.00;99529.53;6215017;28;20073;-74
2021/12/10 04:30:50;;;;;;;2.72;1.98;;;;;;;2.03;100.00;99524.56;6214138;28;20049;-74
2021/12/10 04:33:51;;;;;;;4.32;1.83;;;;;;;2.00;100.00;99520.38;6221374;28;20046;-73
2021/12/10 04:36:55;;;;;;;3.28;2.35;;;;;;;1.97;100.00;99525.66;6214904;28;20061;-74
2021/12/10 04:40:02;;;;;;;1.60;1.15;;;;;;;1.93;100.00;99523.25;6217814;28;20522;-73
2021/12/10 04:43:04;;;;;;;2.40;1.52;;;;;;;1.89;100.00;99519.91;6220694;28;20049;-73
2021/12/10 04:46:06;;;;;;;3.00;1.52;;;;;;;1.95;100.00;99518.84;6222731;28;20049;-74
2021/12/10 04:49:12;;;;;;;3.33;1.83;;;;;;;1.99;100.00;99521.25;6222850;28;20516;-73
2021/12/10 04:52:13;;;;;;;7.35;2.50;;;;;;;2.04;100.00;99518.47;6215263;28;20062;-74
2021/12/10 04:55:17;;;;;;;4.40;2.42;;;;;;;2.08;100.00;99514.88;6222889;28;20057;-74
2021/12/10 04:58:20;;;;;;;7.72;1.80;;;;;;;2.13;100.00;99504.34;6222557;28;20056;-73
2021/12/10 05:01:22;;;;;;;3.92;2.08;;;;;;;2.15;100.00;99500.78;6222773;28;20107;-73
2021/12/10 05:04:24;;;;;;;4.22;2.20;;;;;;;2.21;100.00;99495.34;6222543;28;20049;-74
2021/12/10 05:07:29;;;;;;;5.28;1.77;;;;;;;2.21;100.00;99495.34;6222308;28;20497;-74
2021/12/10 05:10:33;;;;;;;6.97;2.90;;;;;;;2.23;100.00;99495.31;6222131;28;20057;-73
2021/12/10 05:13:36;;;;;;;4.93;2.47;;;;;;;2.27;100.00;99496.84;6222229;28;20060;-74
2021/12/10 05:16:42;;;;;;;6.15;2.13;;;;;;;2.27;100.00;99500.31;6221735;28;20054;-74
2021/12/10 05:19:46;;;;;;;5.90;2.67;;;;;;;2.26;100.00;99498.59;6213699;28;20046;-73
2021/12/10 05:22:49;;;;;;;2.65;1.92;;;;;;;2.24;100.00;99487.47;6222285;28;20516;-73
2021/12/10 05:25:52;;;;;;;5.07;2.58;;;;;;;2.28;100.00;99481.25;6208078;28;20076;-74
2021/12/10 05:28:54;;;;;;;8.13;2.95;;;;;;;2.27;100.00;99477.00;6210541;28;20050;-74
2021/12/10 05:31:58;;;;;;;4.53;2.33;;;;;;;2.31;100.00;99479.44;6216958;28;20406;-73
2021/12/10 05:35:00;;;;;;;4.07;1.83;;;;;;;2.31;100.00;99480.28;6214185;28;20058;-75
2021/12/10 05:38:02;;;;;;;4.45;2.05;;;;;;;2.30;100.00;99476.00;6211442;28;20455;-73
2021/12/10 05:41:09;;;;;;;8.07;2.25;;;;;;;2.31;100.00;99472.50;6213603;28;20049;-75
2021/12/10 05:44:10;;;;;;;4.93;2.17;;;;;;;2.33;100.00;99473.31;6215959;28;20099;-74
2021/12/10 05:47:12;;;;;;;4.28;1.98;;;;;;;2.33;100.00;99473.31;6226157;28;20053;-74
2021/12/10 05:50:17;;;;;;;3.78;1.92;;;;;;;2.35;100.00;99471.47;6226442;28;20425;-74
2021/12/10 05:53:19;;;;;;;6.40;2.10;;;;;;;2.35;100.00;99465.47;6226966;28;20057;-73
2021/12/10 05:56:22;;;;;;;4.93;2.60;;;;;;;2.35;100.00;99461.13;6226582;28;20045;-74
2021/12/10 05:59:24;;;;;;;4.03;1.63;;;;;;;2.34;100.00;99461.19;6226642;28;20046;-74
2021/12/10 06:02:25;;;;;;;4.38;2.58;;;;;;;2.35;100.00;99455.09;6226445;28;20053;-73
2021/12/10 06:05:29;;;;;;;3.80;2.20;;;;;;;2.34;100.00;99451.66;6226314;28;20053;-73
2021/12/10 06:08:31;;;;;;;5.57;2.97;;;;;;;2.35;100.00;99449.91;6225629;28;20456;-74
2021/12/10 06:11:34;;;;;;;4.15;2.22;;;;;;;2.36;100.00;99449.00;6209996;28;20453;-74
2021/12/10 06:14:36;;;;;;;3.05;1.80;;;;;;;2.35;100.00;99447.31;6218407;28;20075;-74
2021/12/10 06:17:37;;;;;;;5.53;2.80;;;;;;;2.34;100.00;99440.44;6226135;28;20049;-74
2021/12/10 06:20:42;;;;;;;3.13;1.30;;;;;;;2.35;100.00;99439.53;6224957;28;20053;-74
2021/12/10 06:23:43;;;;;;;4.00;2.08;;;;;;;2.34;100.00;99440.44;6217535;28;20056;-74
2021/12/10 06:26:47;;;;;;;5.45;2.72;;;;;;;2.32;100.00;99437.94;6218073;28;20060;-74
2021/12/10 06:29:48;;;;;;;3.90;2.15;;;;;;;2.31;100.00;99438.81;6225079;28;20520;-74
2021/12/10 06:32:53;;;;;;;3.40;1.95;;;;;;;2.31;100.00;99432.78;6212285;28;20049;-74
2021/12/10 06:35:57;;;;;;;6.22;2.63;;;;;;;2.31;100.00;99444.00;6218130;28;20457;-73
2021/12/10 06:39:00;;;;;;;3.90;2.53;;;;;;;2.31;100.00;99440.56;6217325;28;20049;-74
2021/12/10 06:42:03;;;;;;;3.95;1.88;;;;;;;2.31;100.00;99440.56;6225546;28;20053;-73
2021/12/10 06:45:09;;;;;;;6.25;3.22;;;;;;;2.32;100.00;99442.25;6219325;28;20541;-74
2021/12/10 06:48:12;;;;;;;2.92;2.10;;;;;;;2.33;100.00;99429.25;6223129;28;20421;-73
2021/12/10 06:51:19;;;;;;;6.25;2.85;;;;;;;2.33;100.00;99436.19;6216086;28;20056;-74
2021/12/10 06:54:21;;;;;;;6.68;2.40;;;;;;;2.34;100.00;99433.50;6221202;28;20498;-73
2021/12/10 06:57:23;;;;;;;11.23;4.28;;;;;;;2.33;100.00;99424.06;6218656;28;20444;-74
2021/12/10 07:00:29;;;;;;;6.80;3.13;;;;;;;2.33;100.00;99428.41;6200799;28;20533;-74
2021/12/10 07:03:31;;;;;;;3.53;2.42;;;;;;;2.35;100.00;99430.00;6200826;28;20054;-74
2021/12/10 07:06:33;;;;;;;9.23;2.40;;;;;;;2.34;100.00;99423.13;6216847;28;20501;-74
2021/12/10 07:09:35;;;;;;;5.40;2.35;;;;;;;2.32;100.00;99416.31;6218636;28;20054;-74
2021/12/10 07:12:41;;;;;;;5.18;2.30;;;;;;;2.23;100.00;99408.03;6224799;28;20046;-74
2021/12/10 07:15:45;;;;;;;7.65;2.78;;;;;;;2.20;100.00;99417.69;6224881;28;20057;-73
2021/12/10 07:18:46;;;;;;;6.00;2.67;;;;;;;2.13;100.00;99416.22;6224950;28;20080;-73
2021/12/10 07:21:47;;;;;;;5.40;2.50;;;;;;;2.01;100.00;99408.06;6224539;28;20042;-73
2021/12/10 07:24:49;;;;;;;8.07;2.95;;;;;;;1.93;100.00;99411.84;6202397;28;20493;-74
2021/12/10 07:27:52;;;;;;;8.30;4.20;;;;;;;1.86;100.00;99406.06;6208567;28;20050;-74
2021/12/10 07:30:53;;;;;;;5.22;2.58;;;;;;;1.75;100.00;99397.88;6216029;28;20057;-74
2021/12/10 07:33:55;;;;;;;8.48;2.67;;;;;;;1.72;100.00;99405.75;6224429;28;20057;-74
2021/12/10 07:36:57;;;;;;;10.15;3.42;;;;;;;1.70;100.00;99392.88;6224414;28;20053;-74
2021/12/10 07:39:58;;;;;;;5.30;1.88;;;;;;;1.65;100.00;99397.38;6223703;28;20046;-73
2021/12/10 07:43:01;;;;;;;5.15;2.70;;;;;;;1.63;100.00;99393.16;6215940;28;20046;-73
2021/12/10 07:46:05;;;;;;;6.13;2.55;;;;;;;1.60;100.00;99385.53;6223764;28;20054;-73
2021/12/10 07:49:13;;;;;;;4.05;1.88;;;;;;;1.57;100.00;99381.31;6221618;28;20128;-73
2021/12/10 07:52:21;;;;;;;8.00;2.60;;;;;;;1.56;100.00;99379.63;6223859;28;20429;-73
2021/12/10 07:55:25;;;;;;;4.03;2.85;;;;;;;1.49;100.00;99376.41;6223809;28;20846;-73
2021/12/10 07:58:28;;;;;;;4.03;2.35;;;;;;;1.41;100.00;99373.28;6224055;28;20551;-73
2021/12/10 08:01:32;;;;;;;5.18;2.42;;;;;;;1.37;100.00;99376.91;6213337;28;20046;-73
2021/12/10 08:04:33;;;;;;;3.53;1.75;;;;;;;1.34;100.00;99376.16;6219602;28;20050;-72
2021/12/10 08:07:35;;;;;;;5.57;2.90;;;;;;;1.36;100.00;99364.00;6199219;28;20425;-72
2021/12/10 08:10:39;;;;;;;6.47;2.50;;;;;;;1.33;100.00;99369.31;6212725;28;20050;-73
2021/12/10 08:13:42;;;;;;;2.90;2.10;;;;;;;1.32;100.00;99370.19;6209397;28;20069;-72
2021/12/10 08:16:44;;;;;;;3.65;1.90;;;;;;;1.32;100.00;99365.88;6208774;28;20050;-71
2021/12/10 08:19:45;;;;;;;5.35;2.50;;;;;;;1.31;100.00;99364.16;6209304;28;20049;-72
2021/12/10 08:22:48;;;;;;;2.83;1.92;;;;;;;1.32;100.00;99363.28;6208024;28;20053;-73
2021/12/10 08:25:49;;;;;;;5.82;2.60;;;;;;;1.31;100.00;99365.91;6203713;28;20053;-72
2021/12/10 08:28:53;;;;;;;6.70;2.65;;;;;;;1.30;100.00;99361.66;6208207;28;20054;-74
2021/12/10 08:31:55;;;;;;;5.38;2.20;;;;;;;1.30;100.00;99369.41;6216955;28;20042;-73
2021/12/10 08:34:56;;;;;;;5.97;2.47;;;;;;;1.33;100.00;99371.91;6213091;28;20588;-73
2021/12/10 08:38:00;;;;;;;4.97;2.25;;;;;;;1.36;100.00;99371.75;6216804;28;20049;-73
2021/12/10 08:41:06;;;;;;;3.65;1.98;;;;;;;1.35;100.00;99368.34;6209448;28;20042;-72
2021/12/10 08:44:10;;;;;;;4.13;2.03;;;;;;;1.38;100.00;99368.22;6210087;28;20057;-73
2021/12/10 08:47:12;;;;;;;4.78;2.65;;;;;;;1.40;100.00;99371.59;6208238;28;20057;-72
2021/12/10 08:50:16;;;;;;;9.90;2.58;;;;;;;1.40;100.00;99363.81;6206507;28;20054;-71
2021/12/10 08:53:18;;;;;;;5.05;2.75;;;;;;;1.42;100.00;99362.03;6213370;28;20050;-72
2021/12/10 08:56:20;;;;;;;6.38;2.67;;;;;;;1.47;100.00;99357.50;6220254;28;20045;-73
2021/12/10 08:59:24;;;;;;;9.07;2.58;;;;;;;1.49;100.00;99354.84;6221215;28;20048;-73
2021/12/10 09:02:26;;;;;;;4.93;2.40;;;;;;;1.52;100.00;99355.59;6221770;28;20485;-74
2021/12/10 09:05:29;;;;;;;2.83;1.67;;;;;;;1.53;100.00;99356.44;6220829;28;20061;-74
2021/12/10 09:08:31;;;;;;;4.40;2.58;;;;;;;1.53;100.00;99359.84;6221610;28;20525;-73
2021/12/10 09:11:33;;;;;;;7.97;3.13;;;;;;;1.53;100.00;99366.78;6217981;28;20053;-74
2021/12/10 09:14:41;;;;;;;4.20;2.85;;;;;;;1.57;100.00;99360.59;6215693;28;20050;-73
2021/12/10 09:17:42;;;;;;;6.85;3.45;;;;;;;1.63;100.00;99368.09;6213987;28;20054;-72
2021/12/10 09:20:48;;;;;;;6.50;2.70;;;;;;;1.63;100.00;99373.28;6218518;28;20124;-73
2021/12/10 09:23:50;;;;;;;4.47;2.20;;;;;;;1.64;100.00;99367.22;6204062;28;20041;-74
2021/12/10 09:26:57;;;;;;;4.03;2.25;;;;;;;1.68;100.00;99368.81;6213877;28;20049;-74
2021/12/10 09:30:00;;;;;;;3.67;2.33;;;;;;;1.71;100.00;99373.84;6220179;28;20422;-74
2021/12/10 09:33:02;;;;;;;6.85;2.63;;;;;;;1.81;100.00;99363.13;6221944;28;20129;-74
2021/12/10 09:36:05;;;;;;;4.60;2.75;;;;;;;1.95;100.00;99369.44;6222252;28;20046;-73
2021/12/10 09:39:08;;;;;;;5.10;2.88;;;;;;;2.02;100.00;99355.31;6221439;28;20053;-73
2021/12/10 09:42:10;;;;;;;4.65;2.80;;;;;;;2.06;100.00;99360.41;6219880;28;20046;-73
2021/12/10 09:45:18;;;;;;;4.30;2.67;;;;;;;2.16;100.00;99359.09;6222071;28;20049;-73
2021/12/10 09:48:21;;;;;;;3.05;1.88;;;;;;;2.27;100.00;99350.00;6221833;28;20049;-73
2021/12/10 09:51:26;;;;;;;4.35;2.50;;;;;;;2.37;100.00;99345.25;6221831;28;20053;-72
2021/12/10 09:54:30;;;;;;;9.57;3.45;;;;;;;2.43;100.00;99350.16;6220870;28;20057;-72
2021/12/10 09:57:35;;;;;;;4.20;2.67;;;;;;;2.50;100.00;99343.84;6222023;28;20046;-73
2021/12/10 10:00:41;;;;;;;5.75;3.05;;;;;;;2.54;100.00;99336.72;6221366;28;20049;-73
2021/12/10 10:03:47;;;;;;;7.55;2.97;;;;;;;2.58;100.00;99340.03;6221762;28;20046;-72
2021/12/10 10:06:54;;;;;;;5.85;3.00;;;;;;;2.62;100.00;99339.00;6221763;28;20054;-72
2021/12/10 10:09:58;;;;;;;8.40;2.80;;;;;;;2.61;100.00;99335.56;6206336;28;20057;-73
2021/12/10 10:13:00;;;;;;;5.53;2.08;;;;;;;2.65;100.00;99339.72;6221670;28;20054;-73
2021/12/10 10:16:04;;;;;;;5.32;2.28;;;;;;;2.69;100.00;99332.66;6221656;28;20057;-72
2021/12/10 10:19:06;;;;;;;5.55;2.30;;;;;;;2.71;100.00;99329.06;6219883;28;20061;-72
2021/12/10 10:22:12;;;;;;;5.18;2.72;;;;;;;2.73;100.00;99327.28;6221410;28;20072;-73
2021/12/10 10:25:17;;;;;;;3.45;2.35;;;;;;;2.79;100.00;99320.97;6223398;28;20057;-73
2021/12/10 10:28:20;;;;;;;6.05;2.75;;;;;;;2.80;100.00;99323.47;6225959;28;20060;-73
2021/12/10 10:31:24;;;;;;;7.30;3.35;;;;;;;2.85;100.00;99318.09;6220302;28;20053;-73
2021/12/10 10:34:28;;;;;;;3.20;1.88;;;;;;;2.88;100.00;99328.34;6217757;28;20046;-74
2021/12/10 10:37:30;;;;;;;4.57;3.10;;;;;;;2.93;100.00;99326.38;6210450;28;20513;-72
2021/12/10 10:40:35;;;;;;;5.32;2.67;;;;;;;2.99;100.00;99315.69;6225201;28;20497;-74
2021/12/10 10:43:38;;;;;;;3.88;2.00;;;;;;;3.04;100.00;99311.19;6217137;28;20053;-74
2021/12/10 10:46:41;;;;;;;5.50;2.88;;;;;;;3.08;100.00;99301.47;6224553;28;20042;-73
2021/12/10 10:49:45;;;;;;;5.22;2.65;;;;;;;3.17;100.00;99305.41;6213729;28;20068;-72
2021/12/10 10:52:51;;;;;;;5.18;2.10;;;;;;;3.24;100.00;99299.88;6214643;28;20072;-73
2021/12/10 10:55:57;;;;;;;8.38;2.63;;;;;;;3.28;100.00;99301.41;6224428;28;20060;-73
2021/12/10 10:59:02;;;;;;;6.65;2.47;;;;;;;3.34;100.00;99296.84;6225066;28;20057;-73
2021/12/10 11:02:09;;;;;;;4.53;2.13;;;;;;;3.40;100.00;99297.38;6225290;28;20046;-74
2021/12/10 11:05:11;;;;;;;6.82;2.60;;;;;;;3.40;100.00;99292.19;6224773;28;20046;-74
2021/12/10 11:08:12;;;;;;;4.57;2.15;;;;;;;3.44;100.00;99288.53;6220993;28;20101;-74
2021/12/10 11:11:17;;;;;;;4.65;2.15;;;;;;;3.54;100.00;99291.53;6215284;28;20545;-73
2021/12/10 11:14:22;;;;;;;5.60;2.78;;;;;;;3.71;100.00;99285.53;6200408;28;20054;-74
2021/12/10 11:17:33;;;;;;;2.47;1.83;;;;;;;3.71;100.00;99288.13;6200529;28;20054;-74
2021/12/10 11:20:42;;;;;;;5.30;2.65;;;;;;;3.71;100.00;99286.34;6200272;28;20055;-74
2021/12/10 11:23:44;;;;;;;;;;;;;;;3.79;100.00;99297.22;6200876;28;20193;-74
2021/12/10 11:26:50;;;;;;;4.00;2.30;;;;;;;4.04;100.00;99294.28;6200330;28;19928;-74
2021/12/10 11:29:53;;;;;;;5.75;2.22;;;;;;;4.13;100.00;99279.09;6200054;28;20050;-74
2021/12/10 11:33:00;;;;;;;7.35;2.15;;;;;;;3.99;100.00;99280.63;6200084;28;20050;-74
2021/12/10 11:36:07;;;;;;;4.25;2.10;;;;;;;3.86;100.00;99277.00;6209073;28;20493;-74
2021/12/10 11:39:08;;;;;;;5.55;2.35;;;;;;;3.75;100.00;99277.50;6223191;28;20108;-74
2021/12/10 11:42:34;;;;;;;4.85;2.13;;;;;;;3.62;100.00;99278.19;6223754;28;20417;-72
2021/12/10 11:45:44;;;;;;;9.10;3.67;;;;;;;3.60;100.00;99277.41;6211860;28;20061;-73
2021/12/10 11:48:50;;;;;;;3.90;2.35;;;;;;;3.72;100.00;99275.03;6199602;28;20058;-72
2021/12/10 11:51:58;;;;;;;9.50;2.33;;;;;;;3.77;100.00;99286.06;6199834;28;20409;-73
2021/12/10 11:55:07;;;;;;;3.72;2.10;;;;;;;3.85;100.00;99274.44;6199338;28;20054;-73
2021/12/10 11:58:15;;;;;;;5.05;1.85;;;;;;;3.95;100.00;99275.66;6200579;28;20050;-73
2021/12/10 12:01:18;;;;;;;4.10;2.30;;;;;;;4.02;100.00;99282.25;6221662;28;20061;-74
2021/12/10 12:04:27;;;;;;;3.95;1.80;;;;;;;4.02;100.00;99269.25;6215306;28;20069;-73
2021/12/10 12:07:35;;;;;;;4.10;2.17;;;;;;;4.01;100.00;99281.41;6223569;28;20172;-73
2021/12/10 12:10:40;;;;;;;3.75;1.83;;;;;;;3.98;100.00;99278.97;6214271;28;20050;-73
2021/12/10 12:13:49;;;;;;;5.63;2.20;;;;;;;4.00;100.00;99279.75;6217891;28;20489;-73
2021/12/10 12:16:51;;;;;;;3.95;2.10;;;;;;;4.00;100.00;99286.69;6223557;28;20059;-74
2021/12/10 12:19:53;;;;;;;7.35;1.98;;;;;;;3.99;100.00;99292.78;6222877;28;20049;-71
2021/12/10 12:26:25;;;;;;;4.30;1.23;;;;;;;3.93;100.00;99290.50;6221448;28;20113;-74
2021/12/10 12:29:34;;;;;;;3.80;2.20;;;;;;;3.93;100.00;99288.75;6222568;28;20490;-73
2021/12/10 12:32:38;;;;;;;3.88;2.00;;;;;;;3.92;100.00;99286.22;6220309;28;20050;-74
2021/12/10 12:35:41;;;;;;;2.28;1.10;;;;;;;3.89;100.00;99276.81;6217161;28;20057;-73
2021/12/10 12:38:46;;;;;;;1.23;0.93;;;;;;;3.86;100.00;99282.19;6214593;28;20497;-73
2021/12/10 12:41:49;;;;;;;3.50;1.73;;;;;;;3.83;100.00;99278.91;6222598;28;20042;-74
2021/12/10 12:44:52;;;;;;;1.27;0.75;;;;;;;3.80;100.00;99277.28;6222714;28;20147;-73
2021/12/10 12:47:56;;;;;;;1.35;1.05;;;;;;;3.91;100.00;99271.56;6222178;28;20542;-72
2021/12/10 12:51:02;;;;;;;5.57;1.20;;;;;;;3.88;100.00;99279.50;6208731;28;20497;-73
2021/12/10 12:54:12;;;;;;;2.70;1.27;;;;;;;3.86;100.00;99271.78;6214515;28;20097;-72
2021/12/10 12:57:13;;;;;;;3.17;1.15;;;;;;;3.83;100.00;99279.72;6222363;28;20061;-73
2021/12/10 13:00:19;;;;;;;1.42;0.93;;;;;;;3.85;100.00;99282.25;6222434;28;20054;-74
2021/12/10 13:03:30;;;;;;;2.00;1.13;;;;;;;3.79;100.00;99286.00;6222410;28;20413;-73
2021/12/10 13:06:38;;;;;;;0.80;0.80;;;;;;;3.80;100.00;99291.09;6220394;28;20049;-72
2021/12/10 13:09:46;;;;;;;2.50;1.30;;;;;;;3.76;100.00;99289.56;6211854;28;20568;-72
2021/12/10 13:12:56;;;;;;;4.10;1.02;;;;;;;3.76;100.00;99293.94;6214035;28;20077;-73
2021/12/10 13:15:57;;;;;;;2.78;1.05;;;;;;;3.76;100.00;99286.97;6221376;28;20054;-72
2021/12/10 13:18:59;;;;;;;1.67;1.08;;;;;;;3.76;100.00;99292.16;6221551;28;20057;-72
2021/12/10 13:22:06;;;;;;;2.40;1.13;;;;;;;3.78;100.00;99284.31;6221931;28;20049;-72
2021/12/10 13:25:12;;;;;;;1.73;1.63;;;;;;;3.75;100.00;99290.50;6221043;28;20058;-72
2021/12/10 13:28:13;;;;;;;0.85;0.75;;;;;;;3.78;100.00;99295.53;6220274;28;20053;-73
2021/12/10 13:31:17;;;;;;;1.00;0.82;;;;;;;3.75;100.00;99302.66;6219778;28;20049;-72
2021/12/10 13:34:19;;;;;;;1.10;0.90;;;;;;;3.77;100.00;99304.28;6220138;28;20188;-73
2021/12/10 13:37:21;;;;;;;1.70;0.88;;;;;;;3.77;100.00;99304.28;6220080;28;20045;-72
2021/12/10 13:40:24;;;;;;;4.10;1.48;;;;;;;3.77;100.00;99309.47;6220046;28;20144;-73
2021/12/10 13:43:26;;;;;;;1.13;1.02;;;;;;;3.76;100.00;99306.91;6204370;28;20053;-73
2021/12/10 13:46:33;;;;;;;3.22;1.70;;;;;;;3.79;100.00;99307.63;6197770;28;20050;-73
2021/12/10 13:49:48;;;;;;;3.60;1.63;;;;;;;3.77;100.00;99306.88;6197553;28;20129;-73
2021/12/10 13:52:55;;;;;;;3.03;2.03;;;;;;;3.76;100.00;99314.72;6197497;28;20053;-72
2021/12/10 13:55:59;;;;;;;4.57;1.90;;;;;;;3.74;100.00;99304.41;6197378;28;20086;-73
2021/12/10 13:59:05;;;;;;;5.05;1.80;;;;;;;3.72;100.00;99314.00;6202130;28;20050;-73
2021/12/10 14:02:11;;;;;;;4.97;2.33;;;;;;;3.70;100.00;99317.63;6226328;28;20057;-72
2021/12/10 14:05:23;;;;;;;3.50;1.42;;;;;;;3.70;100.00;99321.06;6226461;28;20644;-72
2021/12/10 14:08:26;;;;;;;3.05;1.08;;;;;;;3.70;100.00;99326.25;6224237;28;20061;-73
2021/12/10 14:11:42;;;;;;;2.53;1.55;;;;;;;3.69;100.00;99328.94;6226182;28;20073;-73
2021/12/10 14:14:45;;;;;;;3.90;2.25;;;;;;;3.66;100.00;99318.69;6225900;28;20685;-73
2021/12/10 14:17:55;;;;;;;4.32;1.73;;;;;;;3.64;100.00;99325.72;6226317;28;20046;-74
2021/12/10 14:21:01;;;;;;;6.70;2.28;;;;;;;3.62;100.00;99333.56;6225710;28;20390;-73
2021/12/10 14:24:05;;;;;;;7.50;2.75;;;;;;;3.60;100.00;99340.59;6226258;28;20049;-73
2021/12/10 14:27:10;;;;;;;5.47;2.30;;;;;;;3.55;100.00;99333.03;6213724;28;20046;-72
2021/12/10 14:30:16;;;;;;;6.85;2.00;;;;;;;3.51;100.00;99338.44;6213245;28;20046;-74
2021/12/10 14:33:24;;;;;;;4.90;2.70;;;;;;;3.49;100.00;99338.47;6216879;28;20041;-74
2021/12/10 14:36:28;;;;;;;4.07;2.38;;;;;;;3.45;100.00;99344.75;6214706;28;20060;-74